Skip to main content.
Our real time weather data display below is updated continuously via our 24/7 live data feed.
 TIME   TEMPERATURE   WINDSPEED   DIRECTION   HUMIDITY   BAROMETER   RAINFALL 
1:40 21.0°C (69.8°F) 3.7 kmh (2.3 mph) 73% 1013.9hPa (29.94 inHg) 0.0mm (0.00 in.)
12:40 21.0°C (69.8 °F) 9.3 kmh (5.8 mph) 68% 1014.9hPa (29.97 inHg) 0.0mm (0.00 in.)
11:40 21.0°C (69.8 °F) 0.0 kmh (0.0 mph) 73% 1013.9hPa (29.94 inHg) 0.0mm (0.00 in.)
10:40 22.0°C (71.6 °F) 11.1 kmh (6.9 mph) 73% 1013.9hPa (29.94 inHg) 0.0mm (0.00 in.)
9:40 23.0°C (73.4 °F) 13.0 kmh (8.1 mph) 68% 1013.9hPa (29.94 inHg) 0.0mm (0.00 in.)
8:40 25.0°C (77.0 °F) 11.1 kmh (6.9 mph) 44% 1012.9hPa (29.91 inHg) 0.0mm (0.00 in.)
7:40 27.0°C (80.6 °F) 20.4 kmh (12.7 mph) 32% 1012.9hPa (29.91 inHg) 0.0mm (0.00 in.)
6:40 28.0°C (82.4 °F) 16.7 kmh (10.4 mph) 34% 1012.9hPa (29.91 inHg) 0.0mm (0.00 in.)
5:39 29.0°C (84.2 °F) 13.0 kmh (8.1 mph) 28% 1013.9hPa (29.94 inHg) 0.0mm (0.00 in.)
4:34 29.0°C (84.2 °F) 16.7 kmh (10.4 mph) 32% 1013.9hPa (29.94 inHg) 0.0mm (0.00 in.)
3:34 30.0°C (86.0 °F) 16.7 kmh (10.4 mph) 35% 1013.9hPa (29.94 inHg) 0.0mm (0.00 in.)
2:34 29.0°C (84.2 °F) 18.5 kmh (11.5 mph) 51% 1013.9hPa (29.94 inHg) 0.0mm (0.00 in.)
1:34 29.0°C (84.2 °F) 13.0 kmh (8.1 mph) 54% 1014.9hPa (29.97 inHg) 0.0mm (0.00 in.)
12:32 29.0°C (84.2 °F) 11.1 kmh (6.9 mph) 51% 1013.9hPa (29.94 inHg) 0.0mm (0.00 in.)
11:32 29.0°C (84.2 °F) 11.1 kmh (6.9 mph) 54% 1013.9hPa (29.94 inHg) 0.0mm (0.00 in.)
10:32 29.0°C (84.2 °F) 5.6 kmh (3.5 mph) 54% 1013.9hPa (29.94 inHg) 0.0mm (0.00 in.)
9:32 27.0°C (80.6 °F) 7.4 kmh (4.6 mph) 57% 1013.9hPa (29.94 inHg) 0.0mm (0.00 in.)
8:32 24.0°C (75.2 °F) 7.4 kmh (4.6 mph) 94% 1013.9hPa (29.94 inHg) 0.0mm (0.00 in.)
7:32 23.0°C (73.4 °F) 3.7 kmh (2.3 mph) 94% 1013.9hPa (29.94 inHg) 0.0mm (0.00 in.)
6:32 21.0°C (69.8 °F) 3.7 kmh (2.3 mph) 94% 1013.9hPa (29.94 inHg) 0.0mm (0.00 in.)
5:32 22.0°C (71.6 °F) 9.3 kmh (5.8 mph) 94% 1012.9hPa (29.91 inHg) 0.0mm (0.00 in.)
4:32 21.0°C (69.8 °F) 3.7 kmh (2.3 mph) 94% 1012.9hPa (29.91 inHg) 0.0mm (0.00 in.)
3:32 22.0°C (71.6 °F) 1.9 kmh (1.2 mph) 88% 1012.9hPa (29.91 inHg) 0.0mm (0.00 in.)
2:32 22.0°C (71.6 °F) 5.6 kmh (3.5 mph) 88% 1013.9hPa (29.94 inHg) 0.0mm (0.00 in.)